sensor_id;sensor_type;location;lat;lon;timestamp;P1;durP1;ratioP1;P2;durP2;ratioP2
29570;SDS011;16814;52.118;11.436;2022-12-11T00:01:49;19.23;;;11.77;;
29570;SDS011;16814;52.118;11.436;2022-12-11T00:04:15;17.13;;;11.50;;
29570;SDS011;16814;52.118;11.436;2022-12-11T00:06:40;17.43;;;11.50;;
29570;SDS011;16814;52.118;11.436;2022-12-11T00:09:06;20.50;;;11.70;;
29570;SDS011;16814;52.118;11.436;2022-12-11T00:11:32;18.92;;;12.82;;
29570;SDS011;16814;52.118;11.436;2022-12-11T00:13:57;18.53;;;11.07;;
29570;SDS011;16814;52.118;11.436;2022-12-11T00:16:23;16.97;;;10.97;;
29570;SDS011;16814;52.118;11.436;2022-12-11T00:18:49;16.92;;;11.30;;
29570;SDS011;16814;52.118;11.436;2022-12-11T00:21:14;16.43;;;10.97;;
29570;SDS011;16814;52.118;11.436;2022-12-11T00:23:40;17.20;;;10.77;;
29570;SDS011;16814;52.118;11.436;2022-12-11T00:26:07;16.20;;;10.90;;
29570;SDS011;16814;52.118;11.436;2022-12-11T00:28:34;18.15;;;11.25;;
29570;SDS011;16814;52.118;11.436;2022-12-11T00:31:07;18.58;;;11.80;;
29570;SDS011;16814;52.118;11.436;2022-12-11T00:33:33;20.10;;;12.50;;
29570;SDS011;16814;52.118;11.436;2022-12-11T00:35:59;21.38;;;13.18;;
29570;SDS011;16814;52.118;11.436;2022-12-11T00:38:24;22.17;;;12.87;;
29570;SDS011;16814;52.118;11.436;2022-12-11T00:40:50;20.80;;;11.85;;
29570;SDS011;16814;52.118;11.436;2022-12-11T00:43:15;23.43;;;12.60;;
29570;SDS011;16814;52.118;11.436;2022-12-11T00:45:42;19.55;;;12.20;;
29570;SDS011;16814;52.118;11.436;2022-12-11T00:48:09;22.17;;;12.80;;
29570;SDS011;16814;52.118;11.436;2022-12-11T00:50:36;21.10;;;12.68;;
29570;SDS011;16814;52.118;11.436;2022-12-11T00:53:02;22.45;;;12.73;;
29570;SDS011;16814;52.118;11.436;2022-12-11T00:55:28;22.75;;;12.85;;
29570;SDS011;16814;52.118;11.436;2022-12-11T00:57:55;21.83;;;12.77;;
29570;SDS011;16814;52.118;11.436;2022-12-11T01:00:22;20.53;;;12.80;;
29570;SDS011;16814;52.118;11.436;2022-12-11T01:02:48;22.38;;;13.05;;
29570;SDS011;16814;52.118;11.436;2022-12-11T01:05:15;20.23;;;13.15;;
29570;SDS011;16814;52.118;11.436;2022-12-11T01:07:40;23.70;;;13.70;;
29570;SDS011;16814;52.118;11.436;2022-12-11T01:10:06;23.40;;;13.37;;
29570;SDS011;16814;52.118;11.436;2022-12-11T01:12:54;21.13;;;12.80;;
29570;SDS011;16814;52.118;11.436;2022-12-11T01:15:24;23.42;;;13.85;;
29570;SDS011;16814;52.118;11.436;2022-12-11T01:17:52;20.63;;;12.80;;
29570;SDS011;16814;52.118;11.436;2022-12-11T01:20:18;23.38;;;14.40;;
29570;SDS011;16814;52.118;11.436;2022-12-11T01:22:45;23.90;;;14.13;;
29570;SDS011;16814;52.118;11.436;2022-12-11T01:25:11;21.75;;;13.40;;
29570;SDS011;16814;52.118;11.436;2022-12-11T01:27:37;21.75;;;13.25;;
29570;SDS011;16814;52.118;11.436;2022-12-11T01:30:04;20.55;;;13.05;;
29570;SDS011;16814;52.118;11.436;2022-12-11T01:32:32;21.50;;;13.15;;
29570;SDS011;16814;52.118;11.436;2022-12-11T01:34:58;22.67;;;13.32;;
29570;SDS011;16814;52.118;11.436;2022-12-11T01:37:23;21.05;;;13.02;;
29570;SDS011;16814;52.118;11.436;2022-12-11T01:39:49;21.70;;;13.43;;
29570;SDS011;16814;52.118;11.436;2022-12-11T01:42:16;23.30;;;13.43;;
29570;SDS011;16814;52.118;11.436;2022-12-11T01:47:09;26.77;;;15.40;;
29570;SDS011;16814;52.118;11.436;2022-12-11T01:49:35;27.77;;;15.82;;
29570;SDS011;16814;52.118;11.436;2022-12-11T01:52:02;27.52;;;15.75;;
29570;SDS011;16814;52.118;11.436;2022-12-11T01:54:42;31.90;;;16.30;;
29570;SDS011;16814;52.118;11.436;2022-12-11T01:57:09;28.30;;;16.45;;
29570;SDS011;16814;52.118;11.436;2022-12-11T01:59:37;25.08;;;15.13;;
29570;SDS011;16814;52.118;11.436;2022-12-11T02:02:08;28.30;;;15.05;;
29570;SDS011;16814;52.118;11.436;2022-12-11T02:04:43;28.27;;;15.50;;
29570;SDS011;16814;52.118;11.436;2022-12-11T02:07:11;26.20;;;15.30;;
29570;SDS011;16814;52.118;11.436;2022-12-11T02:09:37;26.33;;;15.00;;
29570;SDS011;16814;52.118;11.436;2022-12-11T02:17:19;28.47;;;15.17;;
29570;SDS011;16814;52.118;11.436;2022-12-11T02:20:07;26.43;;;14.13;;
29570;SDS011;16814;52.118;11.436;2022-12-11T02:22:50;28.77;;;15.02;;
29570;SDS011;16814;52.118;11.436;2022-12-11T02:31:08;24.67;;;13.93;;
29570;SDS011;16814;52.118;11.436;2022-12-11T02:33:38;27.97;;;13.90;;
29570;SDS011;16814;52.118;11.436;2022-12-11T02:36:11;25.85;;;13.98;;
29570;SDS011;16814;52.118;11.436;2022-12-11T02:38:40;24.77;;;14.68;;
29570;SDS011;16814;52.118;11.436;2022-12-11T02:41:11;27.40;;;15.07;;
29570;SDS011;16814;52.118;11.436;2022-12-11T02:43:37;27.77;;;15.30;;
29570;SDS011;16814;52.118;11.436;2022-12-11T02:46:04;30.73;;;16.52;;
29570;SDS011;16814;52.118;11.436;2022-12-11T02:48:32;28.95;;;15.80;;
29570;SDS011;16814;52.118;11.436;2022-12-11T02:50:59;30.98;;;16.40;;
29570;SDS011;16814;52.118;11.436;2022-12-11T02:53:28;30.07;;;16.03;;
29570;SDS011;16814;52.118;11.436;2022-12-11T02:56:10;31.95;;;16.48;;
29570;SDS011;16814;52.118;11.436;2022-12-11T02:58:58;28.07;;;15.37;;
29570;SDS011;16814;52.118;11.436;2022-12-11T03:01:27;26.73;;;15.43;;
29570;SDS011;16814;52.118;11.436;2022-12-11T03:03:53;27.57;;;14.57;;
29570;SDS011;16814;52.118;11.436;2022-12-11T03:06:21;26.35;;;14.75;;
29570;SDS011;16814;52.118;11.436;2022-12-11T03:08:51;30.38;;;15.93;;
29570;SDS011;16814;52.118;11.436;2022-12-11T03:11:17;27.07;;;14.83;;
29570;SDS011;16814;52.118;11.436;2022-12-11T03:13:42;26.55;;;14.75;;
29570;SDS011;16814;52.118;11.436;2022-12-11T03:21:37;24.05;;;13.80;;
29570;SDS011;16814;52.118;11.436;2022-12-11T03:26:41;25.00;;;14.25;;
29570;SDS011;16814;52.118;11.436;2022-12-11T03:29:19;23.65;;;13.35;;
29570;SDS011;16814;52.118;11.436;2022-12-11T03:31:55;24.40;;;13.60;;
29570;SDS011;16814;52.118;11.436;2022-12-11T03:34:32;24.60;;;13.93;;
29570;SDS011;16814;52.118;11.436;2022-12-11T03:37:07;22.53;;;13.27;;
29570;SDS011;16814;52.118;11.436;2022-12-11T03:39:53;23.27;;;13.65;;
29570;SDS011;16814;52.118;11.436;2022-12-11T03:42:26;22.02;;;12.57;;
29570;SDS011;16814;52.118;11.436;2022-12-11T03:44:52;25.77;;;14.13;;
29570;SDS011;16814;52.118;11.436;2022-12-11T03:47:21;32.47;;;15.07;;
29570;SDS011;16814;52.118;11.436;2022-12-11T03:49:49;27.38;;;13.82;;
29570;SDS011;16814;52.118;11.436;2022-12-11T03:52:16;26.55;;;13.65;;
29570;SDS011;16814;52.118;11.436;2022-12-11T03:54:45;32.13;;;14.82;;
29570;SDS011;16814;52.118;11.436;2022-12-11T03:57:12;30.23;;;15.32;;
29570;SDS011;16814;52.118;11.436;2022-12-11T03:59:40;32.23;;;15.23;;
29570;SDS011;16814;52.118;11.436;2022-12-11T04:02:06;31.73;;;14.80;;
29570;SDS011;16814;52.118;11.436;2022-12-11T04:04:38;29.80;;;15.02;;
29570;SDS011;16814;52.118;11.436;2022-12-11T04:07:05;28.13;;;14.63;;
29570;SDS011;16814;52.118;11.436;2022-12-11T04:09:31;27.30;;;13.93;;
29570;SDS011;16814;52.118;11.436;2022-12-11T04:11:56;28.33;;;14.15;;
29570;SDS011;16814;52.118;11.436;2022-12-11T04:14:22;26.87;;;13.97;;
29570;SDS011;16814;52.118;11.436;2022-12-11T04:17:06;26.15;;;13.95;;
29570;SDS011;16814;52.118;11.436;2022-12-11T04:19:32;27.30;;;13.88;;
29570;SDS011;16814;52.118;11.436;2022-12-11T04:22:16;25.02;;;13.23;;
29570;SDS011;16814;52.118;11.436;2022-12-11T04:25:01;26.70;;;13.02;;
29570;SDS011;16814;52.118;11.436;2022-12-11T04:27:29;25.35;;;13.35;;
29570;SDS011;16814;52.118;11.436;2022-12-11T04:30:14;27.55;;;13.73;;
29570;SDS011;16814;52.118;11.436;2022-12-11T04:32:42;27.42;;;13.38;;
29570;SDS011;16814;52.118;11.436;2022-12-11T04:35:08;30.52;;;14.75;;
29570;SDS011;16814;52.118;11.436;2022-12-11T04:37:35;32.10;;;14.35;;
29570;SDS011;16814;52.118;11.436;2022-12-11T04:40:01;29.77;;;13.77;;
29570;SDS011;16814;52.118;11.436;2022-12-11T04:42:28;27.70;;;13.67;;
29570;SDS011;16814;52.118;11.436;2022-12-11T04:44:54;28.00;;;13.83;;
29570;SDS011;16814;52.118;11.436;2022-12-11T04:47:19;28.92;;;13.30;;
29570;SDS011;16814;52.118;11.436;2022-12-11T04:49:45;28.80;;;13.07;;
29570;SDS011;16814;52.118;11.436;2022-12-11T04:52:10;28.75;;;14.15;;
29570;SDS011;16814;52.118;11.436;2022-12-11T04:54:36;29.67;;;14.77;;
29570;SDS011;16814;52.118;11.436;2022-12-11T04:57:01;28.10;;;13.57;;
29570;SDS011;16814;52.118;11.436;2022-12-11T04:59:27;27.70;;;13.67;;
29570;SDS011;16814;52.118;11.436;2022-12-11T05:01:53;27.87;;;13.23;;
29570;SDS011;16814;52.118;11.436;2022-12-11T05:04:18;28.35;;;13.80;;
29570;SDS011;16814;52.118;11.436;2022-12-11T05:06:44;27.83;;;13.40;;
29570;SDS011;16814;52.118;11.436;2022-12-11T05:09:10;25.77;;;13.48;;
29570;SDS011;16814;52.118;11.436;2022-12-11T05:11:36;23.33;;;12.43;;
29570;SDS011;16814;52.118;11.436;2022-12-11T05:14:01;26.05;;;12.90;;
29570;SDS011;16814;52.118;11.436;2022-12-11T05:16:27;22.77;;;12.10;;
29570;SDS011;16814;52.118;11.436;2022-12-11T05:18:53;23.07;;;12.40;;
29570;SDS011;16814;52.118;11.436;2022-12-11T05:21:18;23.98;;;12.32;;
29570;SDS011;16814;52.118;11.436;2022-12-11T05:23:44;24.53;;;12.60;;
29570;SDS011;16814;52.118;11.436;2022-12-11T05:26:11;21.45;;;11.57;;
29570;SDS011;16814;52.118;11.436;2022-12-11T05:28:40;21.85;;;11.52;;
29570;SDS011;16814;52.118;11.436;2022-12-11T05:31:13;24.38;;;12.98;;
29570;SDS011;16814;52.118;11.436;2022-12-11T05:33:41;23.75;;;11.85;;
29570;SDS011;16814;52.118;11.436;2022-12-11T05:36:07;23.77;;;12.13;;
29570;SDS011;16814;52.118;11.436;2022-12-11T05:38:37;23.02;;;12.02;;
29570;SDS011;16814;52.118;11.436;2022-12-11T05:41:04;22.97;;;11.93;;
29570;SDS011;16814;52.118;11.436;2022-12-11T05:43:31;24.02;;;12.60;;
29570;SDS011;16814;52.118;11.436;2022-12-11T05:46:09;25.60;;;13.10;;
29570;SDS011;16814;52.118;11.436;2022-12-11T05:48:37;23.88;;;11.98;;
29570;SDS011;16814;52.118;11.436;2022-12-11T05:51:04;24.45;;;11.70;;
29570;SDS011;16814;52.118;11.436;2022-12-11T05:53:31;29.60;;;13.50;;
29570;SDS011;16814;52.118;11.436;2022-12-11T05:56:01;24.35;;;12.38;;
29570;SDS011;16814;52.118;11.436;2022-12-11T05:58:47;25.00;;;12.27;;
29570;SDS011;16814;52.118;11.436;2022-12-11T06:01:27;25.00;;;11.90;;
29570;SDS011;16814;52.118;11.436;2022-12-11T06:03:55;27.55;;;12.65;;
29570;SDS011;16814;52.118;11.436;2022-12-11T06:06:22;25.85;;;13.25;;
29570;SDS011;16814;52.118;11.436;2022-12-11T06:08:49;25.80;;;13.00;;
29570;SDS011;16814;52.118;11.436;2022-12-11T06:11:15;23.80;;;12.38;;
29570;SDS011;16814;52.118;11.436;2022-12-11T06:13:41;29.13;;;13.87;;
29570;SDS011;16814;52.118;11.436;2022-12-11T06:16:07;27.53;;;13.43;;
29570;SDS011;16814;52.118;11.436;2022-12-11T06:18:35;27.65;;;12.80;;
29570;SDS011;16814;52.118;11.436;2022-12-11T06:21:15;27.50;;;13.35;;
29570;SDS011;16814;52.118;11.436;2022-12-11T06:23:43;30.48;;;13.73;;
29570;SDS011;16814;52.118;11.436;2022-12-11T06:26:10;26.05;;;13.30;;
29570;SDS011;16814;52.118;11.436;2022-12-11T06:28:35;29.48;;;13.98;;
29570;SDS011;16814;52.118;11.436;2022-12-11T06:31:02;30.48;;;14.57;;
29570;SDS011;16814;52.118;11.436;2022-12-11T06:33:28;29.17;;;14.07;;
29570;SDS011;16814;52.118;11.436;2022-12-11T06:35:54;31.15;;;14.68;;
29570;SDS011;16814;52.118;11.436;2022-12-11T06:38:20;40.10;;;20.73;;
29570;SDS011;16814;52.118;11.436;2022-12-11T06:40:53;41.53;;;22.27;;
29570;SDS011;16814;52.118;11.436;2022-12-11T06:43:22;42.53;;;21.52;;
29570;SDS011;16814;52.118;11.436;2022-12-11T06:45:48;36.85;;;19.00;;
29570;SDS011;16814;52.118;11.436;2022-12-11T06:48:14;35.72;;;18.52;;
29570;SDS011;16814;52.118;11.436;2022-12-11T06:50:40;32.42;;;15.90;;
29570;SDS011;16814;52.118;11.436;2022-12-11T06:53:05;32.80;;;16.30;;
29570;SDS011;16814;52.118;11.436;2022-12-11T06:55:33;39.33;;;16.90;;
29570;SDS011;16814;52.118;11.436;2022-12-11T06:58:00;33.03;;;16.55;;
29570;SDS011;16814;52.118;11.436;2022-12-11T07:00:25;34.93;;;16.60;;
29570;SDS011;16814;52.118;11.436;2022-12-11T07:02:51;39.60;;;17.00;;
29570;SDS011;16814;52.118;11.436;2022-12-11T07:05:16;35.33;;;16.33;;
29570;SDS011;16814;52.118;11.436;2022-12-11T07:07:42;39.87;;;18.80;;
29570;SDS011;16814;52.118;11.436;2022-12-11T07:10:08;43.78;;;16.52;;
29570;SDS011;16814;52.118;11.436;2022-12-11T07:12:34;31.42;;;14.55;;
29570;SDS011;16814;52.118;11.436;2022-12-11T07:15:00;31.77;;;15.27;;
29570;SDS011;16814;52.118;11.436;2022-12-11T07:17:25;32.67;;;15.67;;
29570;SDS011;16814;52.118;11.436;2022-12-11T07:19:52;36.85;;;16.30;;
29570;SDS011;16814;52.118;11.436;2022-12-11T07:22:17;31.27;;;16.03;;
29570;SDS011;16814;52.118;11.436;2022-12-11T07:24:43;31.42;;;16.10;;
29570;SDS011;16814;52.118;11.436;2022-12-11T07:27:08;32.47;;;16.43;;
29570;SDS011;16814;52.118;11.436;2022-12-11T07:29:34;31.33;;;16.45;;
29570;SDS011;16814;52.118;11.436;2022-12-11T07:31:59;34.27;;;15.53;;
29570;SDS011;16814;52.118;11.436;2022-12-11T07:34:25;33.83;;;17.53;;
29570;SDS011;16814;52.118;11.436;2022-12-11T07:36:50;36.00;;;17.70;;
29570;SDS011;16814;52.118;11.436;2022-12-11T07:39:16;31.40;;;16.27;;
29570;SDS011;16814;52.118;11.436;2022-12-11T07:41:42;33.20;;;16.67;;
29570;SDS011;16814;52.118;11.436;2022-12-11T07:44:07;31.92;;;15.35;;
29570;SDS011;16814;52.118;11.436;2022-12-11T07:46:33;33.17;;;15.93;;
29570;SDS011;16814;52.118;11.436;2022-12-11T07:48:59;32.20;;;16.38;;
29570;SDS011;16814;52.118;11.436;2022-12-11T07:51:26;37.83;;;17.05;;
29570;SDS011;16814;52.118;11.436;2022-12-11T07:53:57;35.58;;;18.70;;
29570;SDS011;16814;52.118;11.436;2022-12-11T07:56:25;34.08;;;16.75;;
29570;SDS011;16814;52.118;11.436;2022-12-11T07:58:51;32.55;;;16.50;;
29570;SDS011;16814;52.118;11.436;2022-12-11T08:03:44;32.05;;;16.33;;
29570;SDS011;16814;52.118;11.436;2022-12-11T08:06:10;31.08;;;15.73;;
29570;SDS011;16814;52.118;11.436;2022-12-11T08:08:36;31.33;;;16.10;;
29570;SDS011;16814;52.118;11.436;2022-12-11T08:11:02;38.63;;;16.70;;
29570;SDS011;16814;52.118;11.436;2022-12-11T08:13:29;33.72;;;16.30;;
29570;SDS011;16814;52.118;11.436;2022-12-11T08:15:55;31.27;;;16.55;;
29570;SDS011;16814;52.118;11.436;2022-12-11T08:18:20;34.13;;;17.23;;
29570;SDS011;16814;52.118;11.436;2022-12-11T08:20:46;36.30;;;18.43;;
29570;SDS011;16814;52.118;11.436;2022-12-11T08:23:11;36.27;;;18.50;;
29570;SDS011;16814;52.118;11.436;2022-12-11T08:25:37;31.63;;;16.37;;
29570;SDS011;16814;52.118;11.436;2022-12-11T08:28:02;33.33;;;17.40;;
29570;SDS011;16814;52.118;11.436;2022-12-11T08:30:28;32.17;;;16.53;;
29570;SDS011;16814;52.118;11.436;2022-12-11T08:32:54;33.08;;;15.75;;
29570;SDS011;16814;52.118;11.436;2022-12-11T08:35:19;37.20;;;18.83;;
29570;SDS011;16814;52.118;11.436;2022-12-11T08:37:45;32.90;;;15.77;;
29570;SDS011;16814;52.118;11.436;2022-12-11T08:40:11;30.38;;;15.60;;
29570;SDS011;16814;52.118;11.436;2022-12-11T08:42:37;27.30;;;14.40;;
29570;SDS011;16814;52.118;11.436;2022-12-11T08:45:03;30.03;;;15.73;;
29570;SDS011;16814;52.118;11.436;2022-12-11T08:47:30;27.23;;;14.10;;
29570;SDS011;16814;52.118;11.436;2022-12-11T08:49:56;28.55;;;15.00;;
29570;SDS011;16814;52.118;11.436;2022-12-11T08:52:22;29.87;;;15.37;;
29570;SDS011;16814;52.118;11.436;2022-12-11T08:54:47;30.40;;;16.07;;
29570;SDS011;16814;52.118;11.436;2022-12-11T08:57:13;30.10;;;15.73;;
29570;SDS011;16814;52.118;11.436;2022-12-11T08:59:39;32.35;;;16.38;;
29570;SDS011;16814;52.118;11.436;2022-12-11T09:02:05;30.00;;;15.65;;
29570;SDS011;16814;52.118;11.436;2022-12-11T09:04:31;30.45;;;15.35;;
29570;SDS011;16814;52.118;11.436;2022-12-11T09:06:57;34.05;;;17.10;;
29570;SDS011;16814;52.118;11.436;2022-12-11T09:09:22;33.60;;;17.03;;
29570;SDS011;16814;52.118;11.436;2022-12-11T09:11:48;33.13;;;16.85;;
29570;SDS011;16814;52.118;11.436;2022-12-11T09:14:14;35.00;;;17.53;;
29570;SDS011;16814;52.118;11.436;2022-12-11T09:16:40;33.78;;;17.08;;
29570;SDS011;16814;52.118;11.436;2022-12-11T09:19:07;32.78;;;17.17;;
29570;SDS011;16814;52.118;11.436;2022-12-11T09:21:35;40.42;;;20.25;;
29570;SDS011;16814;52.118;11.436;2022-12-11T09:24:00;34.40;;;17.63;;
29570;SDS011;16814;52.118;11.436;2022-12-11T09:26:27;30.67;;;15.85;;
29570;SDS011;16814;52.118;11.436;2022-12-11T09:28:54;37.83;;;19.20;;
29570;SDS011;16814;52.118;11.436;2022-12-11T09:31:21;31.20;;;16.75;;
29570;SDS011;16814;52.118;11.436;2022-12-11T09:33:53;36.08;;;17.30;;
29570;SDS011;16814;52.118;11.436;2022-12-11T09:36:22;35.17;;;16.95;;
29570;SDS011;16814;52.118;11.436;2022-12-11T09:38:48;31.65;;;16.25;;
29570;SDS011;16814;52.118;11.436;2022-12-11T09:43:51;34.28;;;16.38;;
29570;SDS011;16814;52.118;11.436;2022-12-11T09:46:37;31.98;;;15.10;;
29570;SDS011;16814;52.118;11.436;2022-12-11T09:49:09;28.47;;;14.50;;
29570;SDS011;16814;52.118;11.436;2022-12-11T09:52:00;29.45;;;14.55;;
29570;SDS011;16814;52.118;11.436;2022-12-11T09:54:34;30.02;;;14.85;;
29570;SDS011;16814;52.118;11.436;2022-12-11T09:57:23;29.98;;;15.40;;
29570;SDS011;16814;52.118;11.436;2022-12-11T10:02:42;28.98;;;14.32;;
29570;SDS011;16814;52.118;11.436;2022-12-11T10:05:12;30.55;;;15.38;;
29570;SDS011;16814;52.118;11.436;2022-12-11T10:07:56;29.33;;;14.90;;
29570;SDS011;16814;52.118;11.436;2022-12-11T10:13:19;30.00;;;15.07;;
29570;SDS011;16814;52.118;11.436;2022-12-11T10:16:24;29.90;;;14.07;;
29570;SDS011;16814;52.118;11.436;2022-12-11T10:18:49;29.67;;;15.05;;
29570;SDS011;16814;52.118;11.436;2022-12-11T10:21:15;31.27;;;15.15;;
29570;SDS011;16814;52.118;11.436;2022-12-11T10:23:43;32.72;;;16.50;;
29570;SDS011;16814;52.118;11.436;2022-12-11T10:26:16;30.55;;;15.27;;
29570;SDS011;16814;52.118;11.436;2022-12-11T10:28:44;32.08;;;15.80;;
29570;SDS011;16814;52.118;11.436;2022-12-11T10:34:03;30.73;;;15.07;;
29570;SDS011;16814;52.118;11.436;2022-12-11T10:36:39;31.00;;;15.03;;
29570;SDS011;16814;52.118;11.436;2022-12-11T10:39:13;33.83;;;15.48;;
29570;SDS011;16814;52.118;11.436;2022-12-11T10:41:41;30.73;;;14.80;;
29570;SDS011;16814;52.118;11.436;2022-12-11T10:44:25;33.17;;;15.73;;
29570;SDS011;16814;52.118;11.436;2022-12-11T10:47:10;32.00;;;15.60;;
29570;SDS011;16814;52.118;11.436;2022-12-11T10:49:41;31.85;;;15.68;;
29570;SDS011;16814;52.118;11.436;2022-12-11T10:52:09;37.67;;;17.10;;
29570;SDS011;16814;52.118;11.436;2022-12-11T10:54:38;49.53;;;21.85;;
29570;SDS011;16814;52.118;11.436;2022-12-11T10:57:07;35.83;;;16.67;;
29570;SDS011;16814;52.118;11.436;2022-12-11T11:02:18;32.47;;;15.77;;
29570;SDS011;16814;52.118;11.436;2022-12-11T11:04:54;34.42;;;16.92;;
29570;SDS011;16814;52.118;11.436;2022-12-11T11:07:23;41.20;;;20.88;;
29570;SDS011;16814;52.118;11.436;2022-12-11T11:12:54;35.40;;;17.58;;
29570;SDS011;16814;52.118;11.436;2022-12-11T11:15:24;32.92;;;16.60;;
29570;SDS011;16814;52.118;11.436;2022-12-11T11:17:52;31.83;;;15.77;;
29570;SDS011;16814;52.118;11.436;2022-12-11T11:20:21;37.42;;;16.98;;
29570;SDS011;16814;52.118;11.436;2022-12-11T11:22:54;33.77;;;17.40;;
29570;SDS011;16814;52.118;11.436;2022-12-11T11:25:22;35.53;;;18.02;;
29570;SDS011;16814;52.118;11.436;2022-12-11T11:28:00;37.17;;;16.92;;
29570;SDS011;16814;52.118;11.436;2022-12-11T11:30:35;30.95;;;16.42;;
29570;SDS011;16814;52.118;11.436;2022-12-11T11:33:12;33.95;;;16.98;;
29570;SDS011;16814;52.118;11.436;2022-12-11T11:35:50;34.67;;;16.98;;
29570;SDS011;16814;52.118;11.436;2022-12-11T11:38:18;38.90;;;17.27;;
29570;SDS011;16814;52.118;11.436;2022-12-11T11:43:42;149.60;;;68.20;;
29570;SDS011;16814;52.118;11.436;2022-12-11T11:46:22;208.35;;;87.30;;
29570;SDS011;16814;52.118;11.436;2022-12-11T11:49:02;122.25;;;54.13;;
29570;SDS011;16814;52.118;11.436;2022-12-11T11:52:24;60.50;;;29.00;;
29570;SDS011;16814;52.118;11.436;2022-12-11T11:55:02;61.42;;;29.85;;
29570;SDS011;16814;52.118;11.436;2022-12-11T11:57:52;47.90;;;24.10;;
29570;SDS011;16814;52.118;11.436;2022-12-11T12:00:29;38.58;;;19.77;;
29570;SDS011;16814;52.118;11.436;2022-12-11T12:02:56;44.13;;;21.58;;
29570;SDS011;16814;52.118;11.436;2022-12-11T12:05:32;44.35;;;23.15;;
29570;SDS011;16814;52.118;11.436;2022-12-11T12:08:16;39.60;;;19.37;;
29570;SDS011;16814;52.118;11.436;2022-12-11T12:16:31;39.53;;;21.25;;
29570;SDS011;16814;52.118;11.436;2022-12-11T12:19:32;41.28;;;20.40;;
29570;SDS011;16814;52.118;11.436;2022-12-11T12:25:28;41.30;;;18.83;;
29570;SDS011;16814;52.118;11.436;2022-12-11T12:28:13;40.33;;;18.17;;
29570;SDS011;16814;52.118;11.436;2022-12-11T12:30:55;37.83;;;18.00;;
29570;SDS011;16814;52.118;11.436;2022-12-11T12:36:32;36.35;;;18.50;;
29570;SDS011;16814;52.118;11.436;2022-12-11T12:39:43;37.20;;;17.45;;
29570;SDS011;16814;52.118;11.436;2022-12-11T12:48:28;39.53;;;18.88;;
29570;SDS011;16814;52.118;11.436;2022-12-11T12:50:54;38.22;;;19.40;;
29570;SDS011;16814;52.118;11.436;2022-12-11T12:53:24;42.13;;;21.15;;
29570;SDS011;16814;52.118;11.436;2022-12-11T12:55:52;38.47;;;19.23;;
29570;SDS011;16814;52.118;11.436;2022-12-11T12:58:23;36.95;;;18.38;;
29570;SDS011;16814;52.118;11.436;2022-12-11T13:01:07;35.00;;;18.55;;
29570;SDS011;16814;52.118;11.436;2022-12-11T13:03:49;37.15;;;17.65;;
29570;SDS011;16814;52.118;11.436;2022-12-11T13:06:32;35.03;;;16.92;;
29570;SDS011;16814;52.118;11.436;2022-12-11T13:09:10;34.78;;;17.85;;
29570;SDS011;16814;52.118;11.436;2022-12-11T13:11:41;36.50;;;17.30;;
29570;SDS011;16814;52.118;11.436;2022-12-11T13:16:40;35.00;;;16.75;;
29570;SDS011;16814;52.118;11.436;2022-12-11T13:22:22;35.03;;;17.57;;
29570;SDS011;16814;52.118;11.436;2022-12-11T13:25:01;35.05;;;17.02;;
29570;SDS011;16814;52.118;11.436;2022-12-11T13:30:06;34.70;;;17.90;;
29570;SDS011;16814;52.118;11.436;2022-12-11T13:32:38;34.83;;;17.60;;
29570;SDS011;16814;52.118;11.436;2022-12-11T13:35:24;39.07;;;17.57;;
29570;SDS011;16814;52.118;11.436;2022-12-11T13:37:50;32.13;;;17.08;;
29570;SDS011;16814;52.118;11.436;2022-12-11T13:40:19;38.00;;;18.60;;
29570;SDS011;16814;52.118;11.436;2022-12-11T13:45:20;38.37;;;18.27;;
29570;SDS011;16814;52.118;11.436;2022-12-11T13:47:49;35.80;;;17.75;;
29570;SDS011;16814;52.118;11.436;2022-12-11T13:50:17;35.60;;;17.70;;
29570;SDS011;16814;52.118;11.436;2022-12-11T13:52:56;35.92;;;18.10;;
29570;SDS011;16814;52.118;11.436;2022-12-11T13:55:24;37.28;;;17.98;;
29570;SDS011;16814;52.118;11.436;2022-12-11T13:57:51;36.30;;;17.92;;
29570;SDS011;16814;52.118;11.436;2022-12-11T14:00:18;39.72;;;19.15;;
29570;SDS011;16814;52.118;11.436;2022-12-11T14:02:50;33.25;;;17.20;;
29570;SDS011;16814;52.118;11.436;2022-12-11T14:05:17;41.80;;;17.40;;
29570;SDS011;16814;52.118;11.436;2022-12-11T14:07:57;39.15;;;17.63;;
29570;SDS011;16814;52.118;11.436;2022-12-11T14:10:26;37.33;;;18.33;;
29570;SDS011;16814;52.118;11.436;2022-12-11T14:15:26;37.13;;;17.23;;
29570;SDS011;16814;52.118;11.436;2022-12-11T14:17:53;35.17;;;17.77;;
29570;SDS011;16814;52.118;11.436;2022-12-11T14:20:26;37.30;;;17.17;;
29570;SDS011;16814;52.118;11.436;2022-12-11T14:25:50;33.97;;;17.03;;
29570;SDS011;16814;52.118;11.436;2022-12-11T14:28:17;37.40;;;18.55;;
29570;SDS011;16814;52.118;11.436;2022-12-11T14:30:45;35.67;;;17.85;;
29570;SDS011;16814;52.118;11.436;2022-12-11T14:33:13;35.65;;;17.02;;
29570;SDS011;16814;52.118;11.436;2022-12-11T14:35:41;45.50;;;17.60;;
29570;SDS011;16814;52.118;11.436;2022-12-11T14:38:51;33.53;;;17.08;;
29570;SDS011;16814;52.118;11.436;2022-12-11T14:41:01;34.80;;;17.25;;
29570;SDS011;16814;52.118;11.436;2022-12-11T14:43:35;35.95;;;16.75;;
29570;SDS011;16814;52.118;11.436;2022-12-11T14:46:07;34.83;;;16.67;;
29570;SDS011;16814;52.118;11.436;2022-12-11T14:48:42;35.88;;;17.25;;
29570;SDS011;16814;52.118;11.436;2022-12-11T14:51:16;33.90;;;17.25;;
29570;SDS011;16814;52.118;11.436;2022-12-11T14:53:43;33.53;;;16.92;;
29570;SDS011;16814;52.118;11.436;2022-12-11T14:56:16;33.47;;;16.95;;
29570;SDS011;16814;52.118;11.436;2022-12-11T14:58:54;39.33;;;17.90;;
29570;SDS011;16814;52.118;11.436;2022-12-11T15:01:27;38.33;;;17.05;;
29570;SDS011;16814;52.118;11.436;2022-12-11T15:06:42;34.88;;;17.25;;
29570;SDS011;16814;52.118;11.436;2022-12-11T15:09:19;37.70;;;18.05;;
29570;SDS011;16814;52.118;11.436;2022-12-11T15:12:07;35.25;;;17.55;;
29570;SDS011;16814;52.118;11.436;2022-12-11T15:14:47;41.05;;;19.27;;
29570;SDS011;16814;52.118;11.436;2022-12-11T15:17:24;40.80;;;19.17;;
29570;SDS011;16814;52.118;11.436;2022-12-11T15:19:52;37.85;;;18.67;;
29570;SDS011;16814;52.118;11.436;2022-12-11T15:22:26;40.85;;;19.95;;
29570;SDS011;16814;52.118;11.436;2022-12-11T15:24:55;40.85;;;20.00;;
29570;SDS011;16814;52.118;11.436;2022-12-11T15:30:01;39.72;;;19.20;;
29570;SDS011;16814;52.118;11.436;2022-12-11T15:32:38;35.53;;;17.17;;
29570;SDS011;16814;52.118;11.436;2022-12-11T15:35:20;39.33;;;17.60;;
29570;SDS011;16814;52.118;11.436;2022-12-11T15:37:53;36.80;;;18.35;;
29570;SDS011;16814;52.118;11.436;2022-12-11T15:40:20;39.28;;;19.13;;
29570;SDS011;16814;52.118;11.436;2022-12-11T15:42:47;41.60;;;19.25;;
29570;SDS011;16814;52.118;11.436;2022-12-11T15:45:20;39.08;;;18.63;;
29570;SDS011;16814;52.118;11.436;2022-12-11T15:47:48;37.72;;;18.38;;
29570;SDS011;16814;52.118;11.436;2022-12-11T15:50:22;38.35;;;17.70;;